sensor_id;sensor_type;location;lat;lon;timestamp;temperature;humidity
22319;DHT22;11327;52.334;9.506;2023-10-13T00:01:14;15.60;99.90
22319;DHT22;11327;52.334;9.506;2023-10-13T00:04:35;15.60;99.90
22319;DHT22;11327;52.334;9.506;2023-10-13T00:08:00;15.70;99.90
22319;DHT22;11327;52.334;9.506;2023-10-13T00:11:21;15.80;99.90
22319;DHT22;11327;52.334;9.506;2023-10-13T00:14:42;15.80;99.90
22319;DHT22;11327;52.334;9.506;2023-10-13T00:18:06;15.80;99.90
22319;DHT22;11327;52.334;9.506;2023-10-13T00:21:30;15.80;99.90
22319;DHT22;11327;52.334;9.506;2023-10-13T00:24:51;15.80;99.90
22319;DHT22;11327;52.334;9.506;2023-10-13T00:28:14;15.80;99.90
22319;DHT22;11327;52.334;9.506;2023-10-13T00:31:38;15.90;99.90
22319;DHT22;11327;52.334;9.506;2023-10-13T00:35:01;15.80;99.90
22319;DHT22;11327;52.334;9.506;2023-10-13T00:38:24;15.80;99.90
22319;DHT22;11327;52.334;9.506;2023-10-13T00:41:45;15.90;99.90
22319;DHT22;11327;52.334;9.506;2023-10-13T00:45:19;15.90;99.90
22319;DHT22;11327;52.334;9.506;2023-10-13T00:48:41;16.00;99.90
22319;DHT22;11327;52.334;9.506;2023-10-13T00:52:03;16.00;99.90
22319;DHT22;11327;52.334;9.506;2023-10-13T00:55:24;16.10;99.90
22319;DHT22;11327;52.334;9.506;2023-10-13T00:58:48;16.00;99.90
22319;DHT22;11327;52.334;9.506;2023-10-13T01:02:13;16.00;99.90
22319;DHT22;11327;52.334;9.506;2023-10-13T01:05:55;16.10;99.90
22319;DHT22;11327;52.334;9.506;2023-10-13T01:09:16;16.10;99.90
22319;DHT22;11327;52.334;9.506;2023-10-13T01:12:37;16.20;99.90
22319;DHT22;11327;52.334;9.506;2023-10-13T01:15:57;16.10;99.90
22319;DHT22;11327;52.334;9.506;2023-10-13T01:19:19;16.10;99.90
22319;DHT22;11327;52.334;9.506;2023-10-13T01:22:42;16.20;99.90
22319;DHT22;11327;52.334;9.506;2023-10-13T01:26:02;16.30;99.90
22319;DHT22;11327;52.334;9.506;2023-10-13T01:29:25;16.20;99.90
22319;DHT22;11327;52.334;9.506;2023-10-13T01:32:49;16.30;99.90
22319;DHT22;11327;52.334;9.506;2023-10-13T01:36:11;16.30;99.90
22319;DHT22;11327;52.334;9.506;2023-10-13T01:39:32;16.30;99.90
22319;DHT22;11327;52.334;9.506;2023-10-13T01:42:53;16.40;99.90
22319;DHT22;11327;52.334;9.506;2023-10-13T01:46:15;16.40;99.90
22319;DHT22;11327;52.334;9.506;2023-10-13T01:49:38;16.40;99.90
22319;DHT22;11327;52.334;9.506;2023-10-13T01:53:03;16.30;99.90
22319;DHT22;11327;52.334;9.506;2023-10-13T01:56:33;16.40;99.90
22319;DHT22;11327;52.334;9.506;2023-10-13T01:59:55;16.30;99.90
22319;DHT22;11327;52.334;9.506;2023-10-13T02:03:18;16.30;99.90
22319;DHT22;11327;52.334;9.506;2023-10-13T02:06:39;16.30;99.90
22319;DHT22;11327;52.334;9.506;2023-10-13T02:10:00;16.30;99.90
22319;DHT22;11327;52.334;9.506;2023-10-13T02:13:24;16.30;99.90
22319;DHT22;11327;52.334;9.506;2023-10-13T02:16:46;16.20;99.90
22319;DHT22;11327;52.334;9.506;2023-10-13T02:20:11;16.20;99.90
22319;DHT22;11327;52.334;9.506;2023-10-13T02:23:33;16.20;99.90
22319;DHT22;11327;52.334;9.506;2023-10-13T02:26:56;16.20;99.90
22319;DHT22;11327;52.334;9.506;2023-10-13T02:30:19;16.30;99.90
22319;DHT22;11327;52.334;9.506;2023-10-13T02:33:42;16.30;99.90
22319;DHT22;11327;52.334;9.506;2023-10-13T02:37:04;16.30;99.90
22319;DHT22;11327;52.334;9.506;2023-10-13T02:40:26;16.40;99.90
22319;DHT22;11327;52.334;9.506;2023-10-13T02:43:46;16.40;99.90
22319;DHT22;11327;52.334;9.506;2023-10-13T02:47:07;16.50;99.90
22319;DHT22;11327;52.334;9.506;2023-10-13T02:50:30;16.50;99.90
22319;DHT22;11327;52.334;9.506;2023-10-13T02:53:52;16.50;99.90
22319;DHT22;11327;52.334;9.506;2023-10-13T02:57:13;16.50;99.90
22319;DHT22;11327;52.334;9.506;2023-10-13T03:00:35;16.40;99.90
22319;DHT22;11327;52.334;9.506;2023-10-13T03:03:58;16.50;99.90
22319;DHT22;11327;52.334;9.506;2023-10-13T03:07:19;16.40;99.90
22319;DHT22;11327;52.334;9.506;2023-10-13T03:10:41;16.50;99.90
22319;DHT22;11327;52.334;9.506;2023-10-13T03:14:04;16.50;99.90
22319;DHT22;11327;52.334;9.506;2023-10-13T03:17:26;16.50;99.90
22319;DHT22;11327;52.334;9.506;2023-10-13T03:20:53;16.60;99.90
22319;DHT22;11327;52.334;9.506;2023-10-13T03:24:16;16.60;99.90
22319;DHT22;11327;52.334;9.506;2023-10-13T03:27:38;16.60;99.90
22319;DHT22;11327;52.334;9.506;2023-10-13T03:31:01;16.50;99.90
22319;DHT22;11327;52.334;9.506;2023-10-13T03:34:22;16.50;99.90
22319;DHT22;11327;52.334;9.506;2023-10-13T03:37:43;16.50;99.90
22319;DHT22;11327;52.334;9.506;2023-10-13T03:41:03;16.60;99.90
22319;DHT22;11327;52.334;9.506;2023-10-13T03:44:31;16.60;99.90
22319;DHT22;11327;52.334;9.506;2023-10-13T03:47:53;16.60;99.90
22319;DHT22;11327;52.334;9.506;2023-10-13T03:51:13;16.60;99.90
22319;DHT22;11327;52.334;9.506;2023-10-13T03:54:35;16.60;99.90
22319;DHT22;11327;52.334;9.506;2023-10-13T03:57:56;16.70;99.90
22319;DHT22;11327;52.334;9.506;2023-10-13T04:01:22;16.60;99.90
22319;DHT22;11327;52.334;9.506;2023-10-13T04:04:47;16.60;99.90
22319;DHT22;11327;52.334;9.506;2023-10-13T04:08:09;16.60;99.90
22319;DHT22;11327;52.334;9.506;2023-10-13T04:11:49;16.70;99.90
22319;DHT22;11327;52.334;9.506;2023-10-13T04:15:15;16.70;99.90
22319;DHT22;11327;52.334;9.506;2023-10-13T04:18:38;16.80;99.90
22319;DHT22;11327;52.334;9.506;2023-10-13T04:22:09;16.80;99.90
22319;DHT22;11327;52.334;9.506;2023-10-13T04:25:37;16.80;99.90
22319;DHT22;11327;52.334;9.506;2023-10-13T04:29:03;16.70;99.90
22319;DHT22;11327;52.334;9.506;2023-10-13T04:32:25;16.70;99.90
22319;DHT22;11327;52.334;9.506;2023-10-13T04:35:48;16.70;99.90
22319;DHT22;11327;52.334;9.506;2023-10-13T04:39:11;16.80;99.90
22319;DHT22;11327;52.334;9.506;2023-10-13T04:42:33;16.70;99.90
22319;DHT22;11327;52.334;9.506;2023-10-13T04:46:01;16.80;99.90
22319;DHT22;11327;52.334;9.506;2023-10-13T04:49:41;16.70;99.90
22319;DHT22;11327;52.334;9.506;2023-10-13T04:53:06;16.70;99.90
22319;DHT22;11327;52.334;9.506;2023-10-13T04:56:28;16.60;99.90
22319;DHT22;11327;52.334;9.506;2023-10-13T05:00:04;16.60;99.90
22319;DHT22;11327;52.334;9.506;2023-10-13T05:03:33;16.60;99.90
22319;DHT22;11327;52.334;9.506;2023-10-13T05:07:12;16.50;99.90
22319;DHT22;11327;52.334;9.506;2023-10-13T05:10:51;16.50;99.90
22319;DHT22;11327;52.334;9.506;2023-10-13T05:14:31;16.60;99.90
22319;DHT22;11327;52.334;9.506;2023-10-13T05:18:10;16.60;99.90
22319;DHT22;11327;52.334;9.506;2023-10-13T05:21:45;16.60;99.90
22319;DHT22;11327;52.334;9.506;2023-10-13T05:25:24;16.60;99.90
22319;DHT22;11327;52.334;9.506;2023-10-13T05:29:04;16.60;99.90
22319;DHT22;11327;52.334;9.506;2023-10-13T05:32:43;16.60;99.90
22319;DHT22;11327;52.334;9.506;2023-10-13T05:36:22;16.70;99.90
22319;DHT22;11327;52.334;9.506;2023-10-13T05:40:01;16.60;99.90
22319;DHT22;11327;52.334;9.506;2023-10-13T05:43:40;16.50;99.90
22319;DHT22;11327;52.334;9.506;2023-10-13T05:47:19;16.50;99.90
22319;DHT22;11327;52.334;9.506;2023-10-13T05:50:45;16.50;99.90
22319;DHT22;11327;52.334;9.506;2023-10-13T05:54:14;16.50;99.90
22319;DHT22;11327;52.334;9.506;2023-10-13T05:57:36;16.50;99.90
22319;DHT22;11327;52.334;9.506;2023-10-13T06:01:16;16.50;99.90
22319;DHT22;11327;52.334;9.506;2023-10-13T06:05:03;16.60;99.90
22319;DHT22;11327;52.334;9.506;2023-10-13T06:08:42;16.60;99.90
22319;DHT22;11327;52.334;9.506;2023-10-13T06:12:11;16.70;99.90
22319;DHT22;11327;52.334;9.506;2023-10-13T06:15:50;16.60;99.90
22319;DHT22;11327;52.334;9.506;2023-10-13T06:19:29;16.70;99.90
22319;DHT22;11327;52.334;9.506;2023-10-13T06:23:07;16.70;99.90
22319;DHT22;11327;52.334;9.506;2023-10-13T06:26:49;16.70;99.90
22319;DHT22;11327;52.334;9.506;2023-10-13T06:30:28;16.60;99.90
22319;DHT22;11327;52.334;9.506;2023-10-13T06:33:49;16.50;99.90
22319;DHT22;11327;52.334;9.506;2023-10-13T06:37:11;16.50;99.90
22319;DHT22;11327;52.334;9.506;2023-10-13T06:40:49;16.50;99.90
22319;DHT22;11327;52.334;9.506;2023-10-13T06:44:11;16.50;99.90
22319;DHT22;11327;52.334;9.506;2023-10-13T06:47:36;16.60;99.90
22319;DHT22;11327;52.334;9.506;2023-10-13T06:50:59;16.60;99.90
22319;DHT22;11327;52.334;9.506;2023-10-13T06:54:22;16.70;99.90
22319;DHT22;11327;52.334;9.506;2023-10-13T06:57:44;16.70;99.90
22319;DHT22;11327;52.334;9.506;2023-10-13T07:01:07;16.70;99.90
22319;DHT22;11327;52.334;9.506;2023-10-13T07:04:27;16.70;99.90
22319;DHT22;11327;52.334;9.506;2023-10-13T07:07:48;16.60;99.90
22319;DHT22;11327;52.334;9.506;2023-10-13T07:11:11;16.70;99.90
22319;DHT22;11327;52.334;9.506;2023-10-13T07:14:36;16.80;99.90
22319;DHT22;11327;52.334;9.506;2023-10-13T07:17:57;16.90;99.90
22319;DHT22;11327;52.334;9.506;2023-10-13T07:21:20;16.80;99.90
22319;DHT22;11327;52.334;9.506;2023-10-13T07:24:49;16.80;99.90
22319;DHT22;11327;52.334;9.506;2023-10-13T07:28:10;16.90;99.90
22319;DHT22;11327;52.334;9.506;2023-10-13T07:31:31;16.90;99.90
22319;DHT22;11327;52.334;9.506;2023-10-13T07:34:53;16.90;99.90
22319;DHT22;11327;52.334;9.506;2023-10-13T07:38:16;16.90;99.90
22319;DHT22;11327;52.334;9.506;2023-10-13T07:41:37;17.00;99.90
22319;DHT22;11327;52.334;9.506;2023-10-13T07:44:58;17.00;99.90
22319;DHT22;11327;52.334;9.506;2023-10-13T07:48:19;17.10;99.90
22319;DHT22;11327;52.334;9.506;2023-10-13T07:51:46;17.10;99.90
22319;DHT22;11327;52.334;9.506;2023-10-13T07:55:08;17.10;99.90
22319;DHT22;11327;52.334;9.506;2023-10-13T07:58:32;17.20;99.90
22319;DHT22;11327;52.334;9.506;2023-10-13T08:01:53;17.20;99.90
22319;DHT22;11327;52.334;9.506;2023-10-13T08:05:32;17.30;99.90
22319;DHT22;11327;52.334;9.506;2023-10-13T08:09:11;17.30;99.90
22319;DHT22;11327;52.334;9.506;2023-10-13T08:12:51;17.40;99.90
22319;DHT22;11327;52.334;9.506;2023-10-13T08:16:13;17.50;99.90
22319;DHT22;11327;52.334;9.506;2023-10-13T08:19:36;17.60;99.90
22319;DHT22;11327;52.334;9.506;2023-10-13T08:23:00;17.70;99.90
22319;DHT22;11327;52.334;9.506;2023-10-13T08:26:38;17.70;99.90
22319;DHT22;11327;52.334;9.506;2023-10-13T08:30:17;17.70;99.90
22319;DHT22;11327;52.334;9.506;2023-10-13T08:33:48;17.80;99.90
22319;DHT22;11327;52.334;9.506;2023-10-13T08:37:10;17.80;99.90
22319;DHT22;11327;52.334;9.506;2023-10-13T08:40:43;17.90;99.90
22319;DHT22;11327;52.334;9.506;2023-10-13T08:44:25;17.90;99.90
22319;DHT22;11327;52.334;9.506;2023-10-13T08:47:55;17.80;99.90
22319;DHT22;11327;52.334;9.506;2023-10-13T08:51:35;18.00;99.90
22319;DHT22;11327;52.334;9.506;2023-10-13T08:54:59;18.00;99.90
22319;DHT22;11327;52.334;9.506;2023-10-13T08:58:28;18.00;99.90
22319;DHT22;11327;52.334;9.506;2023-10-13T09:01:56;18.00;99.90
22319;DHT22;11327;52.334;9.506;2023-10-13T09:05:21;18.10;99.90
22319;DHT22;11327;52.334;9.506;2023-10-13T09:09:06;18.10;99.90
22319;DHT22;11327;52.334;9.506;2023-10-13T09:12:30;18.20;99.90
22319;DHT22;11327;52.334;9.506;2023-10-13T09:15:56;18.20;99.90
22319;DHT22;11327;52.334;9.506;2023-10-13T09:19:22;18.20;99.90
22319;DHT22;11327;52.334;9.506;2023-10-13T09:22:43;18.30;99.90
22319;DHT22;11327;52.334;9.506;2023-10-13T09:26:05;18.40;99.90
22319;DHT22;11327;52.334;9.506;2023-10-13T09:29:32;18.40;99.90
22319;DHT22;11327;52.334;9.506;2023-10-13T09:33:02;18.50;99.90
22319;DHT22;11327;52.334;9.506;2023-10-13T09:36:25;18.60;99.90
22319;DHT22;11327;52.334;9.506;2023-10-13T09:39:47;18.70;99.90
22319;DHT22;11327;52.334;9.506;2023-10-13T09:43:09;18.70;99.90
22319;DHT22;11327;52.334;9.506;2023-10-13T09:46:33;18.70;99.90
22319;DHT22;11327;52.334;9.506;2023-10-13T09:49:59;18.80;99.90
22319;DHT22;11327;52.334;9.506;2023-10-13T09:53:22;19.00;99.90
22319;DHT22;11327;52.334;9.506;2023-10-13T09:56:47;19.00;99.90
22319;DHT22;11327;52.334;9.506;2023-10-13T10:00:18;19.10;99.90
22319;DHT22;11327;52.334;9.506;2023-10-13T10:03:45;19.20;99.90
22319;DHT22;11327;52.334;9.506;2023-10-13T10:07:08;19.30;99.90
22319;DHT22;11327;52.334;9.506;2023-10-13T10:10:45;19.40;99.90
22319;DHT22;11327;52.334;9.506;2023-10-13T10:14:08;19.40;99.90
22319;DHT22;11327;52.334;9.506;2023-10-13T10:17:30;19.50;99.90
22319;DHT22;11327;52.334;9.506;2023-10-13T10:21:06;19.50;99.90
22319;DHT22;11327;52.334;9.506;2023-10-13T10:24:31;19.60;99.90
22319;DHT22;11327;52.334;9.506;2023-10-13T10:28:03;19.60;99.90
22319;DHT22;11327;52.334;9.506;2023-10-13T10:31:33;19.70;99.90
22319;DHT22;11327;52.334;9.506;2023-10-13T10:35:10;19.80;99.90
22319;DHT22;11327;52.334;9.506;2023-10-13T10:38:38;19.90;99.90
22319;DHT22;11327;52.334;9.506;2023-10-13T10:42:11;20.10;99.90
22319;DHT22;11327;52.334;9.506;2023-10-13T10:45:45;20.20;99.90
22319;DHT22;11327;52.334;9.506;2023-10-13T10:49:06;20.30;99.90
22319;DHT22;11327;52.334;9.506;2023-10-13T10:52:28;20.50;99.90
22319;DHT22;11327;52.334;9.506;2023-10-13T10:55:51;20.50;99.90
22319;DHT22;11327;52.334;9.506;2023-10-13T10:59:12;20.60;99.90
22319;DHT22;11327;52.334;9.506;2023-10-13T11:02:34;20.70;99.90
22319;DHT22;11327;52.334;9.506;2023-10-13T11:05:55;20.80;99.90
22319;DHT22;11327;52.334;9.506;2023-10-13T11:09:24;20.90;99.90
22319;DHT22;11327;52.334;9.506;2023-10-13T11:12:55;21.00;99.90
22319;DHT22;11327;52.334;9.506;2023-10-13T11:16:21;21.10;99.90
22319;DHT22;11327;52.334;9.506;2023-10-13T11:19:45;21.30;99.90
22319;DHT22;11327;52.334;9.506;2023-10-13T11:23:11;21.50;99.90
22319;DHT22;11327;52.334;9.506;2023-10-13T11:26:35;21.60;99.90
22319;DHT22;11327;52.334;9.506;2023-10-13T11:29:58;21.70;99.90
22319;DHT22;11327;52.334;9.506;2023-10-13T11:33:20;21.80;99.90
22319;DHT22;11327;52.334;9.506;2023-10-13T11:36:43;21.90;99.90
22319;DHT22;11327;52.334;9.506;2023-10-13T11:40:05;21.90;99.90
22319;DHT22;11327;52.334;9.506;2023-10-13T11:43:40;21.90;99.90
22319;DHT22;11327;52.334;9.506;2023-10-13T11:47:05;21.80;99.90
22319;DHT22;11327;52.334;9.506;2023-10-13T11:50:31;21.90;99.90
22319;DHT22;11327;52.334;9.506;2023-10-13T11:53:55;21.90;99.90
22319;DHT22;11327;52.334;9.506;2023-10-13T11:57:16;21.90;99.90
22319;DHT22;11327;52.334;9.506;2023-10-13T12:00:38;22.20;99.90
22319;DHT22;11327;52.334;9.506;2023-10-13T12:04:13;22.20;99.90
22319;DHT22;11327;52.334;9.506;2023-10-13T12:07:52;22.30;99.90
22319;DHT22;11327;52.334;9.506;2023-10-13T12:11:16;22.30;99.90
22319;DHT22;11327;52.334;9.506;2023-10-13T12:14:52;22.30;99.90
22319;DHT22;11327;52.334;9.506;2023-10-13T12:18:16;22.40;99.90
22319;DHT22;11327;52.334;9.506;2023-10-13T12:21:37;22.50;99.90
22319;DHT22;11327;52.334;9.506;2023-10-13T12:24:58;22.50;99.90
22319;DHT22;11327;52.334;9.506;2023-10-13T12:28:19;22.50;99.90
22319;DHT22;11327;52.334;9.506;2023-10-13T12:31:42;22.50;99.90
22319;DHT22;11327;52.334;9.506;2023-10-13T12:35:05;22.50;99.90
22319;DHT22;11327;52.334;9.506;2023-10-13T12:38:27;22.50;99.90
22319;DHT22;11327;52.334;9.506;2023-10-13T12:42:08;22.60;99.90
22319;DHT22;11327;52.334;9.506;2023-10-13T12:45:48;22.50;99.90
22319;DHT22;11327;52.334;9.506;2023-10-13T12:49:28;22.60;99.90
22319;DHT22;11327;52.334;9.506;2023-10-13T12:53:07;22.50;99.90
22319;DHT22;11327;52.334;9.506;2023-10-13T12:56:30;22.50;99.90
22319;DHT22;11327;52.334;9.506;2023-10-13T12:59:51;22.60;99.90
22319;DHT22;11327;52.334;9.506;2023-10-13T13:03:14;22.70;99.90
22319;DHT22;11327;52.334;9.506;2023-10-13T13:06:34;22.90;99.90
22319;DHT22;11327;52.334;9.506;2023-10-13T13:09:55;23.10;99.90
22319;DHT22;11327;52.334;9.506;2023-10-13T13:13:20;23.10;99.90
22319;DHT22;11327;52.334;9.506;2023-10-13T13:16:43;23.20;99.90
22319;DHT22;11327;52.334;9.506;2023-10-13T13:20:06;23.20;99.90
22319;DHT22;11327;52.334;9.506;2023-10-13T13:23:35;23.20;99.90
22319;DHT22;11327;52.334;9.506;2023-10-13T13:26:57;23.10;99.90
22319;DHT22;11327;52.334;9.506;2023-10-13T13:30:19;23.00;99.90
22319;DHT22;11327;52.334;9.506;2023-10-13T13:33:42;23.00;99.90
22319;DHT22;11327;52.334;9.506;2023-10-13T13:37:04;23.00;99.90
22319;DHT22;11327;52.334;9.506;2023-10-13T13:40:24;23.00;99.90
22319;DHT22;11327;52.334;9.506;2023-10-13T13:43:46;23.10;99.90
22319;DHT22;11327;52.334;9.506;2023-10-13T13:47:15;23.10;99.90
22319;DHT22;11327;52.334;9.506;2023-10-13T13:50:37;23.10;99.90
22319;DHT22;11327;52.334;9.506;2023-10-13T13:54:00;23.10;99.90
22319;DHT22;11327;52.334;9.506;2023-10-13T13:57:20;23.20;99.90
22319;DHT22;11327;52.334;9.506;2023-10-13T14:00:41;23.30;99.90
22319;DHT22;11327;52.334;9.506;2023-10-13T14:04:11;23.40;99.90
22319;DHT22;11327;52.334;9.506;2023-10-13T14:07:34;23.40;99.90
22319;DHT22;11327;52.334;9.506;2023-10-13T14:10:55;23.40;99.90
22319;DHT22;11327;52.334;9.506;2023-10-13T14:14:36;23.50;99.90
22319;DHT22;11327;52.334;9.506;2023-10-13T14:17:57;23.40;99.90
22319;DHT22;11327;52.334;9.506;2023-10-13T14:21:18;23.50;99.90
22319;DHT22;11327;52.334;9.506;2023-10-13T14:24:39;23.50;99.90
22319;DHT22;11327;52.334;9.506;2023-10-13T14:28:08;23.50;99.90
22319;DHT22;11327;52.334;9.506;2023-10-13T14:31:31;23.50;99.90
22319;DHT22;11327;52.334;9.506;2023-10-13T14:34:52;23.50;99.90
22319;DHT22;11327;52.334;9.506;2023-10-13T14:38:16;23.50;99.90
22319;DHT22;11327;52.334;9.506;2023-10-13T14:41:37;23.60;99.90
22319;DHT22;11327;52.334;9.506;2023-10-13T14:45:00;23.50;99.90
22319;DHT22;11327;52.334;9.506;2023-10-13T14:48:21;23.40;99.90
22319;DHT22;11327;52.334;9.506;2023-10-13T14:51:43;23.40;99.90
22319;DHT22;11327;52.334;9.506;2023-10-13T14:55:04;23.40;99.90
22319;DHT22;11327;52.334;9.506;2023-10-13T14:58:27;23.30;99.90
22319;DHT22;11327;52.334;9.506;2023-10-13T15:01:48;23.20;99.90
22319;DHT22;11327;52.334;9.506;2023-10-13T15:05:10;23.10;99.90
22319;DHT22;11327;52.334;9.506;2023-10-13T15:08:36;23.00;99.90
22319;DHT22;11327;52.334;9.506;2023-10-13T15:11:56;22.90;99.90
22319;DHT22;11327;52.334;9.506;2023-10-13T15:15:17;22.80;99.90
22319;DHT22;11327;52.334;9.506;2023-10-13T15:18:39;22.80;99.90
22319;DHT22;11327;52.334;9.506;2023-10-13T15:22:00;22.90;99.90
22319;DHT22;11327;52.334;9.506;2023-10-13T15:25:21;22.90;99.90
22319;DHT22;11327;52.334;9.506;2023-10-13T15:28:44;23.00;99.90
22319;DHT22;11327;52.334;9.506;2023-10-13T15:32:12;22.80;99.90
22319;DHT22;11327;52.334;9.506;2023-10-13T15:35:43;22.90;99.90
22319;DHT22;11327;52.334;9.506;2023-10-13T15:39:04;22.90;99.90
22319;DHT22;11327;52.334;9.506;2023-10-13T15:42:27;22.80;99.90
22319;DHT22;11327;52.334;9.506;2023-10-13T15:45:48;22.80;99.90
22319;DHT22;11327;52.334;9.506;2023-10-13T15:49:08;22.70;99.90
22319;DHT22;11327;52.334;9.506;2023-10-13T15:52:31;22.60;99.90
22319;DHT22;11327;52.334;9.506;2023-10-13T15:55:52;22.60;99.90
22319;DHT22;11327;52.334;9.506;2023-10-13T15:59:13;22.60;99.90
22319;DHT22;11327;52.334;9.506;2023-10-13T16:02:34;22.50;99.90
22319;DHT22;11327;52.334;9.506;2023-10-13T16:05:55;22.60;99.90
22319;DHT22;11327;52.334;9.506;2023-10-13T16:09:16;22.60;99.90
22319;DHT22;11327;52.334;9.506;2023-10-13T16:12:39;22.50;99.90
22319;DHT22;11327;52.334;9.506;2023-10-13T16:16:00;22.50;99.90
22319;DHT22;11327;52.334;9.506;2023-10-13T16:19:21;22.50;99.90
22319;DHT22;11327;52.334;9.506;2023-10-13T16:22:44;22.60;99.90
22319;DHT22;11327;52.334;9.506;2023-10-13T16:26:06;22.60;99.90
22319;DHT22;11327;52.334;9.506;2023-10-13T16:29:28;22.50;99.90
22319;DHT22;11327;52.334;9.506;2023-10-13T16:32:50;22.40;99.90
22319;DHT22;11327;52.334;9.506;2023-10-13T16:36:11;22.60;99.90
22319;DHT22;11327;52.334;9.506;2023-10-13T16:39:33;22.40;99.90
22319;DHT22;11327;52.334;9.506;2023-10-13T16:42:56;22.40;99.90
22319;DHT22;11327;52.334;9.506;2023-10-13T16:46:17;22.30;99.90
22319;DHT22;11327;52.334;9.506;2023-10-13T16:49:38;22.30;99.90
22319;DHT22;11327;52.334;9.506;2023-10-13T16:52:59;22.30;99.90
22319;DHT22;11327;52.334;9.506;2023-10-13T16:56:19;22.30;99.90
22319;DHT22;11327;52.334;9.506;2023-10-13T16:59:42;22.40;99.90
22319;DHT22;11327;52.334;9.506;2023-10-13T17:03:03;22.40;99.90
22319;DHT22;11327;52.334;9.506;2023-10-13T17:06:25;22.30;99.90
22319;DHT22;11327;52.334;9.506;2023-10-13T17:09:46;22.30;99.90
22319;DHT22;11327;52.334;9.506;2023-10-13T17:13:07;22.30;99.90
22319;DHT22;11327;52.334;9.506;2023-10-13T17:16:28;22.40;99.90
22319;DHT22;11327;52.334;9.506;2023-10-13T17:19:51;22.40;99.90
22319;DHT22;11327;52.334;9.506;2023-10-13T17:23:12;22.40;99.90
22319;DHT22;11327;52.334;9.506;2023-10-13T17:26:32;22.30;99.90
22319;DHT22;11327;52.334;9.506;2023-10-13T17:29:53;22.30;99.90
22319;DHT22;11327;52.334;9.506;2023-10-13T17:33:15;22.20;99.90
22319;DHT22;11327;52.334;9.506;2023-10-13T17:36:35;22.20;99.90
22319;DHT22;11327;52.334;9.506;2023-10-13T17:39:58;22.20;99.90
22319;DHT22;11327;52.334;9.506;2023-10-13T17:43:22;22.20;99.90
22319;DHT22;11327;52.334;9.506;2023-10-13T17:46:44;22.10;99.90
22319;DHT22;11327;52.334;9.506;2023-10-13T17:50:06;22.10;99.90
22319;DHT22;11327;52.334;9.506;2023-10-13T17:53:29;22.10;99.90
22319;DHT22;11327;52.334;9.506;2023-10-13T17:56:52;22.10;99.90
22319;DHT22;11327;52.334;9.506;2023-10-13T18:00:13;22.10;99.90
22319;DHT22;11327;52.334;9.506;2023-10-13T18:03:35;22.10;99.90
22319;DHT22;11327;52.334;9.506;2023-10-13T18:06:58;22.00;99.90
22319;DHT22;11327;52.334;9.506;2023-10-13T18:10:18;22.00;99.90
22319;DHT22;11327;52.334;9.506;2023-10-13T18:13:40;21.90;99.90
22319;DHT22;11327;52.334;9.506;2023-10-13T18:17:02;21.80;99.90
22319;DHT22;11327;52.334;9.506;2023-10-13T18:20:24;21.80;99.90
22319;DHT22;11327;52.334;9.506;2023-10-13T18:23:47;21.80;99.90
22319;DHT22;11327;52.334;9.506;2023-10-13T18:27:08;21.60;99.90
22319;DHT22;11327;52.334;9.506;2023-10-13T18:30:28;21.60;99.90
22319;DHT22;11327;52.334;9.506;2023-10-13T18:33:51;21.60;99.90
22319;DHT22;11327;52.334;9.506;2023-10-13T18:37:16;21.60;99.90
22319;DHT22;11327;52.334;9.506;2023-10-13T18:40:37;21.20;99.90
22319;DHT22;11327;52.334;9.506;2023-10-13T18:43:59;21.00;99.90
22319;DHT22;11327;52.334;9.506;2023-10-13T18:47:20;20.80;99.90
22319;DHT22;11327;52.334;9.506;2023-10-13T18:50:41;20.60;99.90
22319;DHT22;11327;52.334;9.506;2023-10-13T18:54:04;20.40;99.90
22319;DHT22;11327;52.334;9.506;2023-10-13T18:57:26;20.30;99.90
22319;DHT22;11327;52.334;9.506;2023-10-13T19:00:47;20.20;99.90
22319;DHT22;11327;52.334;9.506;2023-10-13T19:04:08;20.00;99.90
22319;DHT22;11327;52.334;9.506;2023-10-13T19:07:31;20.10;99.90
22319;DHT22;11327;52.334;9.506;2023-10-13T19:10:51;20.10;99.90
22319;DHT22;11327;52.334;9.506;2023-10-13T19:14:12;20.00;99.90
22319;DHT22;11327;52.334;9.506;2023-10-13T19:17:33;19.90;99.90
22319;DHT22;11327;52.334;9.506;2023-10-13T19:20:55;20.00;99.90
22319;DHT22;11327;52.334;9.506;2023-10-13T19:24:17;20.00;99.90
22319;DHT22;11327;52.334;9.506;2023-10-13T19:27:42;19.90;99.90
22319;DHT22;11327;52.334;9.506;2023-10-13T19:31:06;20.00;99.90
22319;DHT22;11327;52.334;9.506;2023-10-13T19:34:26;20.00;99.90
22319;DHT22;11327;52.334;9.506;2023-10-13T19:37:47;19.90;99.90
22319;DHT22;11327;52.334;9.506;2023-10-13T19:41:16;19.90;99.90
22319;DHT22;11327;52.334;9.506;2023-10-13T19:44:37;19.80;99.90
22319;DHT22;11327;52.334;9.506;2023-10-13T19:47:59;19.90;99.90
22319;DHT22;11327;52.334;9.506;2023-10-13T19:51:20;19.90;99.90
22319;DHT22;11327;52.334;9.506;2023-10-13T19:54:46;19.90;99.90
22319;DHT22;11327;52.334;9.506;2023-10-13T19:58:10;19.80;99.90
22319;DHT22;11327;52.334;9.506;2023-10-13T20:01:33;19.80;99.90
22319;DHT22;11327;52.334;9.506;2023-10-13T20:04:55;19.70;99.90
22319;DHT22;11327;52.334;9.506;2023-10-13T20:08:17;19.80;99.90
22319;DHT22;11327;52.334;9.506;2023-10-13T20:11:38;19.90;99.90
22319;DHT22;11327;52.334;9.506;2023-10-13T20:14:58;19.70;99.90
22319;DHT22;11327;52.334;9.506;2023-10-13T20:18:19;19.70;99.90
22319;DHT22;11327;52.334;9.506;2023-10-13T20:21:40;19.80;99.90
22319;DHT22;11327;52.334;9.506;2023-10-13T20:25:00;19.80;99.90
22319;DHT22;11327;52.334;9.506;2023-10-13T20:28:21;19.80;99.90
22319;DHT22;11327;52.334;9.506;2023-10-13T20:31:45;19.80;99.90
22319;DHT22;11327;52.334;9.506;2023-10-13T20:35:07;19.70;99.90
22319;DHT22;11327;52.334;9.506;2023-10-13T20:38:28;19.70;99.90
22319;DHT22;11327;52.334;9.506;2023-10-13T20:41:51;19.60;99.90
22319;DHT22;11327;52.334;9.506;2023-10-13T20:45:12;19.70;99.90
22319;DHT22;11327;52.334;9.506;2023-10-13T20:48:34;19.70;99.90
22319;DHT22;11327;52.334;9.506;2023-10-13T20:51:54;19.60;99.90
22319;DHT22;11327;52.334;9.506;2023-10-13T20:55:17;19.50;99.90
22319;DHT22;11327;52.334;9.506;2023-10-13T20:58:38;19.40;99.90
22319;DHT22;11327;52.334;9.506;2023-10-13T21:02:01;19.30;99.90
22319;DHT22;11327;52.334;9.506;2023-10-13T21:05:23;19.20;99.90
22319;DHT22;11327;52.334;9.506;2023-10-13T21:08:45;19.20;99.90
22319;DHT22;11327;52.334;9.506;2023-10-13T21:12:06;19.20;99.90
22319;DHT22;11327;52.334;9.506;2023-10-13T21:15:27;19.10;99.90
22319;DHT22;11327;52.334;9.506;2023-10-13T21:18:48;19.10;99.90
22319;DHT22;11327;52.334;9.506;2023-10-13T21:22:10;19.10;99.90
22319;DHT22;11327;52.334;9.506;2023-10-13T21:25:35;19.00;99.90
22319;DHT22;11327;52.334;9.506;2023-10-13T21:28:56;19.00;99.90
22319;DHT22;11327;52.334;9.506;2023-10-13T21:32:17;19.00;99.90